createdAt,value
2018-06-15T00:00:16.919Z,18.41
2018-06-15T00:02:49.437Z,18.42
2018-06-15T00:05:17.780Z,18.43
2018-06-15T00:07:46.165Z,18.43
2018-06-15T00:10:14.535Z,18.41
2018-06-15T00:12:42.940Z,18.38
2018-06-15T00:15:11.347Z,18.35
2018-06-15T00:17:39.735Z,18.33
2018-06-15T00:20:08.116Z,18.34
2018-06-15T00:22:36.549Z,18.33
2018-06-15T00:25:04.943Z,18.34
2018-06-15T00:27:33.288Z,18.34
2018-06-15T00:30:01.767Z,18.33
2018-06-15T00:32:30.175Z,18.34
2018-06-15T00:34:58.607Z,18.34
2018-06-15T00:37:27.027Z,18.33
2018-06-15T00:39:55.387Z,18.33
2018-06-15T00:42:23.851Z,18.32
2018-06-15T00:44:52.196Z,18.27
2018-06-15T00:47:20.599Z,18.27
2018-06-15T00:49:48.935Z,18.28
2018-06-15T00:52:17.335Z,18.27
2018-06-15T00:54:45.705Z,18.28
2018-06-15T00:57:25.411Z,18.31
2018-06-15T00:59:53.755Z,18.34
2018-06-15T01:02:22.155Z,18.34
2018-06-15T01:04:50.515Z,18.35
2018-06-15T01:07:18.989Z,18.34
2018-06-15T01:09:47.361Z,18.34
2018-06-15T01:12:15.799Z,18.33
2018-06-15T01:14:44.282Z,18.33
2018-06-15T01:17:12.689Z,18.34
2018-06-15T01:19:41.140Z,18.35
2018-06-15T01:22:09.490Z,18.32
2018-06-15T01:24:37.971Z,18.31
2018-06-15T01:27:06.392Z,18.31
2018-06-15T01:29:34.734Z,18.32
2018-06-15T01:32:03.017Z,18.33
2018-06-15T01:34:31.433Z,18.34
2018-06-15T01:36:59.835Z,18.35
2018-06-15T01:39:28.239Z,18.39
2018-06-15T01:41:56.604Z,18.41
2018-06-15T01:44:24.995Z,18.42
2018-06-15T01:46:53.450Z,18.42
2018-06-15T01:49:21.797Z,18.43
2018-06-15T01:51:50.263Z,18.44
2018-06-15T01:54:18.653Z,18.46
2018-06-15T01:56:47.068Z,18.48
2018-06-15T01:59:15.676Z,18.49
2018-06-15T02:01:44.052Z,18.50
2018-06-15T02:04:12.419Z,18.52
2018-06-15T02:06:40.863Z,18.50
2018-06-15T02:09:10.053Z,18.49
2018-06-15T02:11:38.411Z,18.47
2018-06-15T02:14:06.901Z,18.46
2018-06-15T02:16:35.295Z,18.45
2018-06-15T02:19:03.772Z,18.46
2018-06-15T02:21:32.191Z,18.46
2018-06-15T02:24:00.568Z,18.46
2018-06-15T02:26:29.009Z,18.46
2018-06-15T02:28:57.380Z,18.45
2018-06-15T02:31:25.730Z,18.45
2018-06-15T02:33:54.290Z,18.44
2018-06-15T02:36:22.632Z,18.43
2018-06-15T02:38:51.036Z,18.43
2018-06-15T02:41:19.524Z,18.46
2018-06-15T02:43:47.907Z,18.46
2018-06-15T02:46:16.300Z,18.46
2018-06-15T02:48:44.622Z,18.46
2018-06-15T02:51:13.023Z,18.48
2018-06-15T02:53:41.424Z,18.46
2018-06-15T02:56:09.918Z,18.47
2018-06-15T02:58:38.242Z,18.49
2018-06-15T03:01:06.640Z,18.47
2018-06-15T03:03:35.171Z,18.47
2018-06-15T03:06:03.599Z,18.45
2018-06-15T03:08:31.979Z,18.46
2018-06-15T03:11:00.373Z,18.46
2018-06-15T03:13:28.748Z,18.43
2018-06-15T03:15:57.324Z,18.44
2018-06-15T03:18:25.668Z,18.43
2018-06-15T03:20:54.043Z,18.43
2018-06-15T03:23:22.471Z,18.45
2018-06-15T03:25:50.820Z,18.46
2018-06-15T03:28:19.217Z,18.47
2018-06-15T03:30:47.600Z,18.50
2018-06-15T03:33:16.029Z,18.51
2018-06-15T03:35:44.424Z,18.50
2018-06-15T03:38:12.823Z,18.49
2018-06-15T03:40:41.285Z,18.50
2018-06-15T03:43:09.652Z,18.51
2018-06-15T03:45:38.088Z,18.51
2018-06-15T03:48:06.484Z,18.51
2018-06-15T03:50:34.831Z,18.51
2018-06-15T03:53:03.265Z,18.53
2018-06-15T03:55:31.669Z,18.53
2018-06-15T03:58:00.120Z,18.53
2018-06-15T04:00:28.581Z,18.53
2018-06-15T04:02:56.915Z,18.55
2018-06-15T04:05:25.350Z,18.55
2018-06-15T04:07:53.820Z,18.56
2018-06-15T04:10:22.169Z,18.57
2018-06-15T04:12:50.554Z,18.56
2018-06-15T04:15:18.958Z,18.58
2018-06-15T04:17:51.550Z,18.58
2018-06-15T04:20:19.891Z,18.58
2018-06-15T04:22:48.336Z,18.60
2018-06-15T04:25:16.887Z,18.62
2018-06-15T04:27:45.397Z,18.64
2018-06-15T04:30:13.768Z,18.65
2018-06-15T04:32:43.137Z,18.67
2018-06-15T04:35:11.507Z,18.68
2018-06-15T04:37:40.039Z,18.70
2018-06-15T04:40:08.434Z,18.71
2018-06-15T04:42:36.837Z,18.70
2018-06-15T04:45:05.631Z,18.70
2018-06-15T04:47:34.045Z,18.69
2018-06-15T04:50:02.487Z,18.70
2018-06-15T04:52:37.331Z,18.69
2018-06-15T04:55:06.311Z,18.69
2018-06-15T04:57:34.719Z,18.70
2018-06-15T05:00:03.207Z,18.72
2018-06-15T05:02:31.601Z,18.69
2018-06-15T05:05:00.602Z,18.49
2018-06-15T05:07:29.181Z,18.67
2018-06-15T05:09:57.823Z,18.68
2018-06-15T05:12:26.179Z,18.72
2018-06-15T05:14:54.688Z,18.76
2018-06-15T05:17:23.119Z,18.80
2018-06-15T05:19:51.532Z,18.82
2018-06-15T05:22:19.871Z,18.83
2018-06-15T05:24:48.328Z,18.83
2018-06-15T05:27:16.694Z,18.86
2018-06-15T05:29:45.092Z,18.86
2018-06-15T05:32:13.501Z,18.86
2018-06-15T05:34:41.874Z,18.85
2018-06-15T05:37:10.263Z,18.87
2018-06-15T05:39:38.651Z,18.89
2018-06-15T05:42:07.044Z,18.92
2018-06-15T05:44:36.655Z,18.94
2018-06-15T05:47:05.147Z,18.95
2018-06-15T05:49:33.671Z,18.97
2018-06-15T05:52:02.116Z,18.98
2018-06-15T05:54:30.535Z,19.00
2018-06-15T05:56:58.961Z,19.00
2018-06-15T05:59:27.388Z,19.03
2018-06-15T06:01:55.827Z,19.05
2018-06-15T06:04:24.211Z,19.09
2018-06-15T06:06:52.629Z,19.12
2018-06-15T06:09:21.002Z,19.16
2018-06-15T06:11:49.387Z,19.16
2018-06-15T06:14:17.807Z,19.12
2018-06-15T06:16:46.202Z,19.09
2018-06-15T06:19:14.615Z,19.07
2018-06-15T06:21:43.057Z,19.05
2018-06-15T06:24:11.448Z,19.00
2018-06-15T06:26:39.854Z,18.98
2018-06-15T06:29:08.328Z,18.99
2018-06-15T06:31:36.929Z,19.02
2018-06-15T06:34:05.315Z,19.03
2018-06-15T06:36:33.797Z,19.05
2018-06-15T06:39:02.249Z,19.05
2018-06-15T06:41:30.647Z,19.08
2018-06-15T06:43:59.114Z,19.06
2018-06-15T06:46:27.639Z,19.04
2018-06-15T06:48:56.092Z,19.03
2018-06-15T06:51:24.513Z,19.02
2018-06-15T06:53:52.930Z,19.06
2018-06-15T06:56:21.308Z,19.10
2018-06-15T06:58:49.776Z,19.14
2018-06-15T07:01:18.504Z,19.16
2018-06-15T07:03:46.984Z,19.19
2018-06-15T07:06:15.470Z,19.21
2018-06-15T07:08:44.413Z,19.21
2018-06-15T07:11:12.920Z,19.22
2018-06-15T07:13:41.371Z,19.25
2018-06-15T07:16:09.694Z,19.29
2018-06-15T07:18:38.164Z,19.32
2018-06-15T07:21:06.629Z,19.38
2018-06-15T07:23:35.062Z,19.40
2018-06-15T07:26:03.693Z,19.43
2018-06-15T07:28:32.068Z,19.47
2018-06-15T07:31:00.707Z,19.51
2018-06-15T07:33:29.188Z,19.52
2018-06-15T07:35:57.607Z,19.57
2018-06-15T07:38:26.179Z,19.62
2018-06-15T07:40:54.568Z,19.71
2018-06-15T07:43:28.679Z,19.77
2018-06-15T07:45:57.267Z,19.82
2018-06-15T07:48:25.683Z,19.88
2018-06-15T07:50:54.066Z,19.93
2018-06-15T07:53:22.492Z,19.99
2018-06-15T07:55:51.028Z,19.95
2018-06-15T07:58:19.438Z,19.97
2018-06-15T08:00:47.859Z,19.96
2018-06-15T08:03:16.527Z,19.92
2018-06-15T08:05:44.970Z,19.91
2018-06-15T08:08:13.859Z,19.91
2018-06-15T08:10:42.243Z,19.89
2018-06-15T08:13:10.635Z,19.85
2018-06-15T08:15:39.055Z,19.83
2018-06-15T08:18:07.451Z,19.81
2018-06-15T08:20:35.851Z,19.84
2018-06-15T08:23:04.265Z,19.87
2018-06-15T08:25:32.648Z,19.91
2018-06-15T08:28:01.044Z,19.95
2018-06-15T08:30:46.250Z,19.97
2018-06-15T08:36:01.616Z,19.98
2018-06-15T08:38:30.009Z,19.97
2018-06-15T08:40:58.414Z,19.95
2018-06-15T08:43:26.743Z,19.91
2018-06-15T08:45:55.121Z,19.89
2018-06-15T08:48:23.571Z,19.86
2018-06-15T08:50:51.951Z,19.82
2018-06-15T08:53:20.328Z,19.84
2018-06-15T08:55:48.809Z,19.85
2018-06-15T08:58:17.301Z,19.88
2018-06-15T09:00:45.668Z,19.90
2018-06-15T09:03:14.080Z,19.90
2018-06-15T09:05:42.646Z,19.89
2018-06-15T09:08:11.087Z,19.89
2018-06-15T09:10:39.502Z,19.92
2018-06-15T09:13:08.189Z,19.96
2018-06-15T09:15:36.598Z,20.00
2018-06-15T09:18:05.364Z,20.06
2018-06-15T09:20:34.211Z,20.08
2018-06-15T09:23:02.610Z,20.09
2018-06-15T09:25:31.951Z,20.10
2018-06-15T09:28:00.389Z,20.10
2018-06-15T09:30:28.787Z,20.10
2018-06-15T09:32:57.252Z,20.13
2018-06-15T09:35:25.625Z,20.13
2018-06-15T09:37:54.035Z,20.14
2018-06-15T09:40:22.450Z,20.14
2018-06-15T09:42:50.863Z,20.15
2018-06-15T09:45:19.291Z,20.18
2018-06-15T09:47:47.703Z,20.24
2018-06-15T09:50:16.070Z,20.29
2018-06-15T09:52:44.450Z,20.38
2018-06-15T09:55:12.823Z,20.46
2018-06-15T09:57:41.148Z,20.58
2018-06-15T10:00:09.523Z,20.68
2018-06-15T10:02:38.000Z,20.79
2018-06-15T10:05:06.369Z,20.89
2018-06-15T10:07:34.727Z,20.94
2018-06-15T10:10:03.049Z,21.04
2018-06-15T10:12:31.460Z,21.12
2018-06-15T10:14:59.819Z,21.17
2018-06-15T10:17:28.619Z,21.15
2018-06-15T10:19:57.040Z,21.13
2018-06-15T10:22:25.444Z,21.17
2018-06-15T10:24:53.807Z,21.24
2018-06-15T10:27:22.301Z,21.32
2018-06-15T10:29:50.643Z,21.40
2018-06-15T10:32:19.042Z,21.44
2018-06-15T10:34:47.424Z,21.37
2018-06-15T10:37:15.803Z,21.31
2018-06-15T10:39:44.215Z,21.32
2018-06-15T10:42:12.567Z,21.48
2018-06-15T10:44:40.999Z,21.61
2018-06-15T10:47:09.433Z,21.76
2018-06-15T10:49:37.812Z,21.94
2018-06-15T10:52:06.272Z,22.22
2018-06-15T10:54:34.679Z,22.51
2018-06-15T10:57:03.065Z,22.82
2018-06-15T10:59:31.480Z,22.96
2018-06-15T11:01:59.875Z,23.06
2018-06-15T11:04:28.717Z,23.33
2018-06-15T11:06:57.223Z,23.62
2018-06-15T11:09:25.743Z,23.87
2018-06-15T11:11:54.149Z,24.07
2018-06-15T11:14:22.648Z,24.29
2018-06-15T11:16:51.001Z,24.46
2018-06-15T11:19:19.348Z,24.57
2018-06-15T11:21:47.775Z,24.73
2018-06-15T11:24:16.155Z,24.83
2018-06-15T11:26:44.551Z,24.97
2018-06-15T11:29:12.883Z,25.15
2018-06-15T11:31:41.292Z,25.30
2018-06-15T11:34:09.651Z,25.39
2018-06-15T11:36:38.070Z,25.59
2018-06-15T11:39:08.556Z,25.53
2018-06-15T11:41:36.984Z,25.31
2018-06-15T11:44:05.875Z,25.27
2018-06-15T11:46:34.272Z,25.40
2018-06-15T11:49:02.753Z,25.52
2018-06-15T11:51:31.140Z,25.59
2018-06-15T11:53:59.543Z,25.56
2018-06-15T11:56:27.947Z,25.37
2018-06-15T11:58:56.348Z,25.35
2018-06-15T12:01:24.751Z,25.33
2018-06-15T12:03:53.111Z,25.28
2018-06-15T12:06:22.055Z,25.07
2018-06-15T12:08:50.463Z,24.77
2018-06-15T12:11:18.811Z,24.43
2018-06-15T12:13:47.205Z,24.14
2018-06-15T12:16:15.659Z,23.92
2018-06-15T12:18:43.999Z,23.76
2018-06-15T12:21:12.384Z,23.67
2018-06-15T12:23:40.697Z,23.61
2018-06-15T12:26:09.112Z,23.53
2018-06-15T12:28:37.520Z,23.48
2018-06-15T12:31:06.031Z,23.44
2018-06-15T12:33:34.443Z,23.37
2018-06-15T12:36:02.857Z,23.33
2018-06-15T12:38:31.630Z,23.29
2018-06-15T12:41:00.044Z,23.24
2018-06-15T12:43:28.443Z,23.15
2018-06-15T12:45:57.158Z,23.10
2018-06-15T12:48:25.497Z,23.07
2018-06-15T12:50:53.990Z,23.03
2018-06-15T12:53:22.446Z,23.20
2018-06-15T12:55:51.031Z,23.62
2018-06-15T12:58:19.537Z,23.98
2018-06-15T13:00:48.042Z,24.34
2018-06-15T13:03:16.460Z,24.40
2018-06-15T13:05:44.786Z,24.25
2018-06-15T13:08:13.184Z,24.10
2018-06-15T13:10:41.580Z,23.91
2018-06-15T13:13:09.909Z,23.75
2018-06-15T13:15:38.969Z,23.62
2018-06-15T13:18:07.480Z,23.53
2018-06-15T13:20:35.916Z,23.43
2018-06-15T13:23:04.339Z,23.35
2018-06-15T13:25:32.997Z,23.30
2018-06-15T13:28:01.353Z,23.28
2018-06-15T13:30:29.910Z,23.27
2018-06-15T13:32:58.588Z,23.25
2018-06-15T13:35:27.135Z,23.23
2018-06-15T13:37:55.606Z,23.25
2018-06-15T13:40:23.966Z,23.30
2018-06-15T13:42:52.269Z,23.30
2018-06-15T13:45:20.648Z,23.26
2018-06-15T13:47:49.022Z,23.20
2018-06-15T13:50:17.411Z,23.21
2018-06-15T13:52:45.806Z,23.16
2018-06-15T13:55:14.171Z,23.24
2018-06-15T13:57:42.746Z,23.29
2018-06-15T14:00:11.224Z,23.33
2018-06-15T14:02:39.633Z,23.39
2018-06-15T14:05:08.097Z,23.35
2018-06-15T14:07:36.535Z,23.28
2018-06-15T14:10:05.225Z,23.21
2018-06-15T14:12:33.707Z,23.15
2018-06-15T14:15:02.215Z,23.14
2018-06-15T14:17:30.692Z,23.26
2018-06-15T14:19:59.064Z,23.40
2018-06-15T14:22:27.558Z,23.75
2018-06-15T14:24:56.056Z,24.07
2018-06-15T14:27:24.519Z,24.41
2018-06-15T14:29:53.006Z,24.75
2018-06-15T14:32:21.409Z,25.11
2018-06-15T14:34:49.825Z,25.43
2018-06-15T14:37:18.224Z,25.71
2018-06-15T14:39:47.886Z,25.89
2018-06-15T14:42:16.329Z,25.98
2018-06-15T14:44:44.785Z,26.01
2018-06-15T14:47:13.301Z,26.01
2018-06-15T14:49:41.867Z,26.11
2018-06-15T14:52:10.366Z,26.07
2018-06-15T14:54:39.455Z,25.89
2018-06-15T14:57:07.921Z,25.70
2018-06-15T14:59:36.300Z,25.51
2018-06-15T15:02:04.925Z,25.28
2018-06-15T15:04:33.427Z,25.07
2018-06-15T15:07:01.843Z,24.92
2018-06-15T15:09:30.292Z,24.79
2018-06-15T15:11:58.695Z,24.62
2018-06-15T15:14:27.078Z,24.49
2018-06-15T15:16:55.579Z,24.38
2018-06-15T15:19:24.070Z,24.27
2018-06-15T15:21:52.524Z,24.20
2018-06-15T15:24:21.023Z,24.18
2018-06-15T15:26:49.764Z,24.17
2018-06-15T15:29:18.232Z,24.18
2018-06-15T15:31:46.845Z,24.16
2018-06-15T15:34:15.346Z,24.23
2018-06-15T15:36:43.897Z,24.45
2018-06-15T15:39:12.395Z,24.71
2018-06-15T15:41:40.807Z,24.91
2018-06-15T15:44:09.439Z,25.05
2018-06-15T15:46:37.781Z,25.16
2018-06-15T15:49:06.164Z,25.27
2018-06-15T15:51:34.613Z,25.39
2018-06-15T15:54:02.979Z,25.49
2018-06-15T15:56:31.352Z,25.53
2018-06-15T15:58:59.775Z,25.54
2018-06-15T16:01:28.188Z,25.55
2018-06-15T16:03:56.575Z,25.59
2018-06-15T16:06:25.025Z,25.72
2018-06-15T16:08:53.416Z,25.64
2018-06-15T16:11:21.793Z,25.57
2018-06-15T16:13:50.171Z,25.61
2018-06-15T16:16:18.676Z,26.17
2018-06-15T16:18:47.092Z,27.14
2018-06-15T16:21:15.568Z,27.90
2018-06-15T16:23:43.991Z,28.60
2018-06-15T16:26:12.931Z,29.12
2018-06-15T16:28:41.361Z,29.65
2018-06-15T16:31:09.747Z,30.21
2018-06-15T16:33:38.159Z,30.74
2018-06-15T16:36:06.647Z,31.11
2018-06-15T16:38:35.035Z,31.51
2018-06-15T16:41:03.522Z,31.61
2018-06-15T16:43:31.887Z,31.70
2018-06-15T16:46:00.427Z,31.84
2018-06-15T16:48:28.932Z,31.97
2018-06-15T16:50:57.348Z,31.97
2018-06-15T16:53:25.760Z,32.06
2018-06-15T16:55:54.151Z,31.96
2018-06-15T16:58:22.523Z,32.02
2018-06-15T17:00:50.900Z,31.92
2018-06-15T17:03:19.285Z,31.85
2018-06-15T17:05:47.704Z,31.62
2018-06-15T17:08:16.495Z,31.40
2018-06-15T17:10:44.824Z,31.08
2018-06-15T17:13:13.231Z,30.86
2018-06-15T17:15:41.719Z,30.73
2018-06-15T17:18:10.112Z,30.64
2018-06-15T17:20:38.575Z,30.49
2018-06-15T17:23:07.034Z,30.29
2018-06-15T17:25:35.372Z,29.79
2018-06-15T17:28:03.771Z,29.07
2018-06-15T17:30:32.146Z,28.63
2018-06-15T17:33:00.579Z,28.57
2018-06-15T17:35:30.057Z,28.68
2018-06-15T17:37:58.419Z,28.73
2018-06-15T17:40:27.345Z,28.59
2018-06-15T17:42:55.652Z,28.45
2018-06-15T17:45:24.076Z,28.19
2018-06-15T17:47:52.467Z,27.94
2018-06-15T17:50:20.928Z,27.74
2018-06-15T17:52:49.329Z,27.56
2018-06-15T17:55:17.689Z,27.33
2018-06-15T17:57:46.102Z,26.93
2018-06-15T18:00:14.546Z,26.55
2018-06-15T18:02:42.876Z,26.16
2018-06-15T18:05:11.230Z,25.81
2018-06-15T18:07:39.608Z,25.57
2018-06-15T18:10:08.007Z,25.40
2018-06-15T18:12:36.412Z,25.23
2018-06-15T18:15:04.836Z,25.09
2018-06-15T18:17:33.538Z,24.96
2018-06-15T18:20:01.912Z,24.83
2018-06-15T18:22:30.284Z,24.70
2018-06-15T18:24:58.687Z,24.60
2018-06-15T18:27:27.123Z,24.53
2018-06-15T18:29:55.565Z,24.45
2018-06-15T18:32:24.016Z,24.35
2018-06-15T18:34:52.367Z,24.33
2018-06-15T18:37:20.795Z,24.24
2018-06-15T18:39:49.185Z,24.18
2018-06-15T18:42:17.581Z,24.12
2018-06-15T18:44:46.057Z,24.07
2018-06-15T18:47:14.483Z,24.01
2018-06-15T18:49:42.837Z,23.94
2018-06-15T18:52:11.195Z,23.90
2018-06-15T18:54:39.673Z,23.83
2018-06-15T18:57:08.111Z,23.78
2018-06-15T18:59:36.908Z,23.73
2018-06-15T19:02:05.595Z,23.69
2018-06-15T19:04:34.108Z,23.64
2018-06-15T19:07:02.541Z,23.58
2018-06-15T19:09:30.942Z,23.53
2018-06-15T19:11:59.872Z,23.50
2018-06-15T19:14:28.313Z,23.45
2018-06-15T19:16:56.761Z,23.42
2018-06-15T19:19:25.160Z,23.37
2018-06-15T19:21:53.567Z,23.34
2018-06-15T19:24:22.050Z,23.30
2018-06-15T19:26:50.437Z,23.29
2018-06-15T19:29:18.803Z,23.25
2018-06-15T19:31:47.293Z,23.22
2018-06-15T19:34:15.684Z,23.18
2018-06-15T19:36:44.056Z,23.14
2018-06-15T19:39:12.455Z,23.10
2018-06-15T19:41:40.903Z,23.06
2018-06-15T19:44:09.249Z,23.02
2018-06-15T19:46:37.667Z,23.00
2018-06-15T19:49:06.164Z,22.98
2018-06-15T19:51:34.575Z,22.97
2018-06-15T19:54:02.948Z,22.94
2018-06-15T19:56:31.299Z,22.91
2018-06-15T19:58:59.807Z,22.88
2018-06-15T20:01:28.102Z,22.84
2018-06-15T20:03:56.431Z,22.79
2018-06-15T20:06:24.919Z,22.77
2018-06-15T20:08:53.248Z,22.74
2018-06-15T20:11:21.653Z,22.71
2018-06-15T20:13:50.037Z,22.67
2018-06-15T20:16:18.445Z,22.62
2018-06-15T20:18:46.807Z,22.58
2018-06-15T20:21:15.184Z,22.55
2018-06-15T20:23:43.760Z,22.52
2018-06-15T20:26:12.385Z,22.48
2018-06-15T20:28:40.844Z,22.46
2018-06-15T20:31:09.330Z,22.44
2018-06-15T20:33:37.700Z,22.42
2018-06-15T20:36:07.323Z,22.39
2018-06-15T20:38:35.819Z,22.34
2018-06-15T20:41:04.229Z,22.29
2018-06-15T20:43:32.627Z,22.24
2018-06-15T20:46:01.011Z,22.19
2018-06-15T20:48:29.786Z,22.14
2018-06-15T20:50:58.163Z,22.09
2018-06-15T20:53:26.560Z,22.07
2018-06-15T20:55:54.890Z,22.02
2018-06-15T20:58:23.222Z,21.98
2018-06-15T21:00:51.761Z,21.95
2018-06-15T21:03:20.287Z,21.92
2018-06-15T21:05:48.771Z,21.89
2018-06-15T21:08:18.131Z,21.86
2018-06-15T21:10:46.587Z,21.85
2018-06-15T21:13:14.999Z,21.83
2018-06-15T21:15:43.402Z,21.82
2018-06-15T21:18:11.887Z,21.80
2018-06-15T21:20:40.310Z,21.81
2018-06-15T21:23:08.827Z,21.83
2018-06-15T21:25:37.180Z,21.83
2018-06-15T21:28:05.507Z,21.80
2018-06-15T21:30:33.849Z,21.78
2018-06-15T21:33:02.244Z,21.72
2018-06-15T21:35:30.619Z,21.68
2018-06-15T21:37:59.023Z,21.65
2018-06-15T21:40:27.455Z,21.63
2018-06-15T21:42:55.831Z,21.65
2018-06-15T21:45:24.258Z,21.65
2018-06-15T21:47:53.422Z,21.65
2018-06-15T21:50:21.827Z,21.64
2018-06-15T21:52:50.163Z,21.59
2018-06-15T21:55:18.553Z,21.55
2018-06-15T21:57:46.889Z,21.51
2018-06-15T22:00:15.323Z,21.49
2018-06-15T22:02:43.701Z,21.46
2018-06-15T22:05:12.093Z,21.42
2018-06-15T22:07:40.491Z,21.41
2018-06-15T22:10:08.987Z,21.42
2018-06-15T22:12:37.427Z,21.38
2018-06-15T22:15:05.895Z,21.34
2018-06-15T22:17:34.261Z,21.26
2018-06-15T22:20:02.628Z,21.22
2018-06-15T22:22:31.010Z,21.17
2018-06-15T22:24:59.391Z,21.17
2018-06-15T22:27:27.935Z,21.17
2018-06-15T22:29:56.445Z,21.14
2018-06-15T22:32:24.869Z,21.11
2018-06-15T22:34:53.279Z,21.10
2018-06-15T22:37:21.707Z,21.10
2018-06-15T22:39:50.187Z,21.05
2018-06-15T22:42:18.604Z,21.04
2018-06-15T22:44:46.951Z,21.01
2018-06-15T22:47:15.375Z,20.99
2018-06-15T22:49:43.797Z,20.98
2018-06-15T22:52:12.146Z,20.98
2018-06-15T22:54:40.545Z,20.99
2018-06-15T22:57:08.922Z,20.99
2018-06-15T22:59:37.296Z,20.97
2018-06-15T23:02:05.723Z,20.95
2018-06-15T23:04:34.175Z,20.96
2018-06-15T23:07:02.531Z,20.96
2018-06-15T23:09:31.019Z,20.95
2018-06-15T23:11:59.468Z,20.96
2018-06-15T23:14:27.827Z,20.93
2018-06-15T23:16:56.295Z,20.93
2018-06-15T23:19:24.731Z,20.95
2018-06-15T23:21:53.093Z,20.96
2018-06-15T23:24:21.394Z,20.93
2018-06-15T23:26:49.816Z,20.90
2018-06-15T23:29:18.164Z,20.89
2018-06-15T23:31:46.665Z,20.87
2018-06-15T23:34:15.027Z,20.86
2018-06-15T23:36:43.419Z,20.83
2018-06-15T23:39:11.792Z,20.79
2018-06-15T23:41:40.267Z,20.71
2018-06-15T23:44:08.696Z,20.66
2018-06-15T23:46:37.203Z,20.61
2018-06-15T23:49:05.639Z,20.56
2018-06-15T23:51:33.948Z,20.55
2018-06-15T23:54:02.396Z,20.56
2018-06-15T23:56:30.784Z,20.57
2018-06-15T23:58:59.155Z,20.54
